sensor_id;sensor_type;location;lat;lon;timestamp;pressure;altitude;pressure_sealevel;temperature;humidity
75775;BME280;64505;51.458;7.556;2022-12-28T00:01:27;99989.78;;;4.12;81.29
75775;BME280;64505;51.458;7.556;2022-12-28T00:03:29;99989.31;;;4.08;82.49
75775;BME280;64505;51.458;7.556;2022-12-28T00:05:30;99970.53;;;4.05;81.62
75775;BME280;64505;51.458;7.556;2022-12-28T00:07:31;99957.56;;;4.11;81.84
75775;BME280;64505;51.458;7.556;2022-12-28T00:09:33;99962.75;;;4.19;81.07
75775;BME280;64505;51.458;7.556;2022-12-28T00:11:34;99965.38;;;4.19;81.21
75775;BME280;64505;51.458;7.556;2022-12-28T00:13:36;99957.31;;;4.21;80.94
75775;BME280;64505;51.458;7.556;2022-12-28T00:15:38;99961.09;;;4.18;81.25
75775;BME280;64505;51.458;7.556;2022-12-28T00:17:39;99954.25;;;4.17;81.14
75775;BME280;64505;51.458;7.556;2022-12-28T00:19:41;99949.66;;;4.19;81.52
75775;BME280;64505;51.458;7.556;2022-12-28T00:21:43;99948.28;;;4.23;81.25
75775;BME280;64505;51.458;7.556;2022-12-28T00:23:50;99946.22;;;4.19;81.21
75775;BME280;64505;51.458;7.556;2022-12-28T00:25:53;99951.25;;;4.20;81.24
75775;BME280;64505;51.458;7.556;2022-12-28T00:27:54;99936.69;;;4.26;80.62
75775;BME280;64505;51.458;7.556;2022-12-28T00:29:56;99938.63;;;4.24;80.96
75775;BME280;64505;51.458;7.556;2022-12-28T00:31:57;99929.66;;;4.26;81.35
75775;BME280;64505;51.458;7.556;2022-12-28T00:33:58;99932.06;;;4.28;81.47
75775;BME280;64505;51.458;7.556;2022-12-28T00:36:01;99925.84;;;4.29;81.46
75775;BME280;64505;51.458;7.556;2022-12-28T00:38:03;99926.31;;;4.32;81.15
75775;BME280;64505;51.458;7.556;2022-12-28T00:40:05;99931.38;;;4.34;80.85
75775;BME280;64505;51.458;7.556;2022-12-28T00:42:07;99923.34;;;4.35;81.13
75775;BME280;64505;51.458;7.556;2022-12-28T00:44:08;99936.34;;;4.43;80.89
75775;BME280;64505;51.458;7.556;2022-12-28T00:46:10;99929.47;;;4.42;81.10
75775;BME280;64505;51.458;7.556;2022-12-28T00:48:12;99937.53;;;4.41;81.48
75775;BME280;64505;51.458;7.556;2022-12-28T00:50:13;99925.88;;;4.43;81.23
75775;BME280;64505;51.458;7.556;2022-12-28T00:52:15;99926.97;;;4.49;80.84
75775;BME280;64505;51.458;7.556;2022-12-28T00:54:16;99927.97;;;4.48;81.47
75775;BME280;64505;51.458;7.556;2022-12-28T00:56:20;99924.63;;;4.54;81.00
75775;BME280;64505;51.458;7.556;2022-12-28T00:58:21;99926.72;;;4.59;80.85
75775;BME280;64505;51.458;7.556;2022-12-28T01:00:23;99911.63;;;4.61;80.91
75775;BME280;64505;51.458;7.556;2022-12-28T01:02:24;99901.97;;;4.61;81.18
75775;BME280;64505;51.458;7.556;2022-12-28T01:04:25;99909.84;;;4.61;81.38
75775;BME280;64505;51.458;7.556;2022-12-28T01:06:27;99907.03;;;4.63;81.40
75775;BME280;64505;51.458;7.556;2022-12-28T01:08:29;99905.41;;;4.62;81.87
75775;BME280;64505;51.458;7.556;2022-12-28T01:10:30;99904.22;;;4.64;81.68
75775;BME280;64505;51.458;7.556;2022-12-28T01:12:32;99911.91;;;4.66;82.44
75775;BME280;64505;51.458;7.556;2022-12-28T01:14:38;99905.66;;;4.67;82.18
75775;BME280;64505;51.458;7.556;2022-12-28T01:16:40;99904.06;;;4.66;82.97
75775;BME280;64505;51.458;7.556;2022-12-28T01:18:41;99880.50;;;4.66;83.17
75775;BME280;64505;51.458;7.556;2022-12-28T01:20:43;99880.41;;;4.74;83.13
75775;BME280;64505;51.458;7.556;2022-12-28T01:22:44;99867.66;;;4.71;84.11
75775;BME280;64505;51.458;7.556;2022-12-28T01:24:46;99875.72;;;4.69;85.05
75775;BME280;64505;51.458;7.556;2022-12-28T01:26:47;99880.75;;;4.71;84.65
75775;BME280;64505;51.458;7.556;2022-12-28T01:28:49;99866.84;;;4.70;84.83
75775;BME280;64505;51.458;7.556;2022-12-28T01:30:50;99867.66;;;4.71;85.01
75775;BME280;64505;51.458;7.556;2022-12-28T01:32:52;99862.63;;;4.69;85.08
75775;BME280;64505;51.458;7.556;2022-12-28T01:34:53;99849.16;;;4.72;84.79
75775;BME280;64505;51.458;7.556;2022-12-28T01:36:55;99842.47;;;4.70;85.08
75775;BME280;64505;51.458;7.556;2022-12-28T01:38:59;99847.06;;;4.68;85.21
75775;BME280;64505;51.458;7.556;2022-12-28T01:41:01;99852.94;;;4.70;85.10
75775;BME280;64505;51.458;7.556;2022-12-28T01:43:09;99848.50;;;4.70;85.48
75775;BME280;64505;51.458;7.556;2022-12-28T01:45:18;99848.50;;;4.70;84.83
75775;BME280;64505;51.458;7.556;2022-12-28T01:47:24;99840.09;;;4.75;85.58
75775;BME280;64505;51.458;7.556;2022-12-28T01:49:28;99841.38;;;4.79;85.00
75775;BME280;64505;51.458;7.556;2022-12-28T01:51:34;99834.50;;;4.78;85.27
75775;BME280;64505;51.458;7.556;2022-12-28T01:53:39;99827.00;;;4.75;85.76
75775;BME280;64505;51.458;7.556;2022-12-28T01:55:41;99832.44;;;4.73;85.65
75775;BME280;64505;51.458;7.556;2022-12-28T01:57:48;99823.56;;;4.74;86.15
75775;BME280;64505;51.458;7.556;2022-12-28T02:00:12;99817.53;;;4.74;86.38
75775;BME280;64505;51.458;7.556;2022-12-28T02:02:14;99814.13;;;4.73;86.21
75775;BME280;64505;51.458;7.556;2022-12-28T02:04:17;99812.56;;;4.79;86.01
75775;BME280;64505;51.458;7.556;2022-12-28T02:06:18;99812.91;;;4.76;86.28
75775;BME280;64505;51.458;7.556;2022-12-28T02:08:50;99816.00;;;4.79;86.43
75775;BME280;64505;51.458;7.556;2022-12-28T02:10:48;99806.94;;;4.82;85.90
75775;BME280;64505;51.458;7.556;2022-12-28T02:12:51;99792.03;;;4.82;86.22
75775;BME280;64505;51.458;7.556;2022-12-28T02:14:53;99795.47;;;4.83;86.69
75775;BME280;64505;51.458;7.556;2022-12-28T02:16:55;99792.84;;;4.83;86.56
75775;BME280;64505;51.458;7.556;2022-12-28T02:18:57;99788.22;;;4.85;86.26
75775;BME280;64505;51.458;7.556;2022-12-28T02:30:22;99763.47;;;5.02;86.10
75775;BME280;64505;51.458;7.556;2022-12-28T02:35:04;99760.03;;;5.02;86.70
75775;BME280;64505;51.458;7.556;2022-12-28T02:37:16;99759.28;;;5.08;86.48
75775;BME280;64505;51.458;7.556;2022-12-28T02:39:21;99740.75;;;5.09;86.01
75775;BME280;64505;51.458;7.556;2022-12-28T02:41:25;99740.53;;;5.11;86.53
75775;BME280;64505;51.458;7.556;2022-12-28T02:43:27;99728.09;;;5.13;86.18
75775;BME280;64505;51.458;7.556;2022-12-28T02:47:52;99718.66;;;5.18;86.35
75775;BME280;64505;51.458;7.556;2022-12-28T02:50:14;99718.66;;;5.18;86.17
75775;BME280;64505;51.458;7.556;2022-12-28T02:52:38;99713.22;;;5.20;86.49
75775;BME280;64505;51.458;7.556;2022-12-28T02:54:52;99701.75;;;5.21;86.10
75775;BME280;64505;51.458;7.556;2022-12-28T03:02:03;99699.19;;;5.27;86.04
75775;BME280;64505;51.458;7.556;2022-12-28T03:04:51;99685.88;;;5.29;86.29
75775;BME280;64505;51.458;7.556;2022-12-28T03:11:52;99672.03;;;5.35;86.23
75775;BME280;64505;51.458;7.556;2022-12-28T03:14:00;99681.31;;;5.37;86.18
75775;BME280;64505;51.458;7.556;2022-12-28T03:16:06;99675.44;;;5.35;86.03
75775;BME280;64505;51.458;7.556;2022-12-28T03:18:11;99659.94;;;5.40;86.01
75775;BME280;64505;51.458;7.556;2022-12-28T03:20:32;99659.94;;;5.40;86.49
75775;BME280;64505;51.458;7.556;2022-12-28T03:22:53;99667.44;;;5.43;86.34
75775;BME280;64505;51.458;7.556;2022-12-28T03:25:19;99673.31;;;5.45;85.72
75775;BME280;64505;51.458;7.556;2022-12-28T03:27:41;99665.88;;;5.49;86.10
75775;BME280;64505;51.458;7.556;2022-12-28T03:30:08;99655.19;;;5.51;86.65
75775;BME280;64505;51.458;7.556;2022-12-28T03:32:30;99656.81;;;5.52;85.91
75775;BME280;64505;51.458;7.556;2022-12-28T03:34:32;99648.75;;;5.53;85.93
75775;BME280;64505;51.458;7.556;2022-12-28T03:41:05;99620.69;;;5.54;86.59
75775;BME280;64505;51.458;7.556;2022-12-28T03:43:16;99613.03;;;5.52;86.89
75775;BME280;64505;51.458;7.556;2022-12-28T03:46:44;99610.44;;;5.59;86.14
75775;BME280;64505;51.458;7.556;2022-12-28T03:48:19;99609.84;;;5.57;86.48
75775;BME280;64505;51.458;7.556;2022-12-28T03:50:21;99605.38;;;5.57;86.27
75775;BME280;64505;51.458;7.556;2022-12-28T03:52:24;99603.78;;;5.56;86.39
75775;BME280;64505;51.458;7.556;2022-12-28T03:54:26;99598.53;;;5.56;86.54
75775;BME280;64505;51.458;7.556;2022-12-28T03:56:28;99597.34;;;5.59;87.17
75775;BME280;64505;51.458;7.556;2022-12-28T03:58:29;99594.72;;;5.59;87.02
75775;BME280;64505;51.458;7.556;2022-12-28T04:00:31;99600.56;;;5.61;86.80
75775;BME280;64505;51.458;7.556;2022-12-28T04:02:32;99597.16;;;5.60;86.34
75775;BME280;64505;51.458;7.556;2022-12-28T04:04:34;99592.50;;;5.62;86.85
75775;BME280;64505;51.458;7.556;2022-12-28T04:06:36;99586.88;;;5.65;86.55
75775;BME280;64505;51.458;7.556;2022-12-28T04:08:37;99587.91;;;5.64;87.08
75775;BME280;64505;51.458;7.556;2022-12-28T04:10:39;99577.84;;;5.68;86.51
75775;BME280;64505;51.458;7.556;2022-12-28T04:12:40;99582.06;;;5.69;87.24
75775;BME280;64505;51.458;7.556;2022-12-28T04:14:42;99580.25;;;5.69;86.64
75775;BME280;64505;51.458;7.556;2022-12-28T04:16:43;99579.66;;;5.74;86.75
75775;BME280;64505;51.458;7.556;2022-12-28T04:18:44;99572.59;;;5.74;86.79
75775;BME280;64505;51.458;7.556;2022-12-28T04:20:47;99573.03;;;5.78;86.34
75775;BME280;64505;51.458;7.556;2022-12-28T04:22:48;99568.78;;;5.77;86.78
75775;BME280;64505;51.458;7.556;2022-12-28T04:24:50;99571.41;;;5.77;87.10
75775;BME280;64505;51.458;7.556;2022-12-28T04:26:51;99559.91;;;5.78;87.07
75775;BME280;64505;51.458;7.556;2022-12-28T04:28:53;99560.31;;;5.81;86.30
75775;BME280;64505;51.458;7.556;2022-12-28T04:30:56;99550.84;;;5.80;87.05
75775;BME280;64505;51.458;7.556;2022-12-28T04:32:57;99555.91;;;5.82;86.89
75775;BME280;64505;51.458;7.556;2022-12-28T04:34:59;99551.69;;;5.87;86.65
75775;BME280;64505;51.458;7.556;2022-12-28T04:37:00;99544.63;;;5.88;86.25
75775;BME280;64505;51.458;7.556;2022-12-28T04:39:01;99542.19;;;5.86;86.50
75775;BME280;64505;51.458;7.556;2022-12-28T04:41:05;99535.78;;;5.89;86.93
75775;BME280;64505;51.458;7.556;2022-12-28T04:43:06;99527.50;;;5.92;86.49
75775;BME280;64505;51.458;7.556;2022-12-28T04:45:08;99522.03;;;5.93;85.95
75775;BME280;64505;51.458;7.556;2022-12-28T04:47:10;99527.69;;;5.90;86.86
75775;BME280;64505;51.458;7.556;2022-12-28T04:49:11;99520.44;;;5.92;86.97
75775;BME280;64505;51.458;7.556;2022-12-28T04:53:14;99509.94;;;5.92;86.40
75775;BME280;64505;51.458;7.556;2022-12-28T04:55:15;99514.56;;;5.97;86.02
75775;BME280;64505;51.458;7.556;2022-12-28T04:57:33;99522.25;;;5.99;86.62
75775;BME280;64505;51.458;7.556;2022-12-28T04:59:35;99498.66;;;6.05;85.76
75775;BME280;64505;51.458;7.556;2022-12-28T05:01:36;99515.22;;;6.06;86.73
75775;BME280;64505;51.458;7.556;2022-12-28T05:03:39;99514.81;;;6.15;86.32
75775;BME280;64505;51.458;7.556;2022-12-28T05:05:41;99506.16;;;6.15;85.86
75775;BME280;64505;51.458;7.556;2022-12-28T05:07:42;99499.47;;;6.12;86.09
75775;BME280;64505;51.458;7.556;2022-12-28T05:09:44;99503.13;;;6.18;86.45
75775;BME280;64505;51.458;7.556;2022-12-28T05:11:45;99505.75;;;6.18;85.72
75775;BME280;64505;51.458;7.556;2022-12-28T05:13:47;99492.03;;;6.22;85.61
75775;BME280;64505;51.458;7.556;2022-12-28T05:15:48;99502.94;;;6.26;86.63
75775;BME280;64505;51.458;7.556;2022-12-28T05:17:50;99498.50;;;6.26;86.63
75775;BME280;64505;51.458;7.556;2022-12-28T05:19:51;99482.34;;;6.29;86.58
75775;BME280;64505;51.458;7.556;2022-12-28T05:21:53;99494.06;;;6.27;87.27
75775;BME280;64505;51.458;7.556;2022-12-28T05:23:55;99484.75;;;6.24;86.79
75775;BME280;64505;51.458;7.556;2022-12-28T05:25:57;99484.97;;;6.23;87.40
75775;BME280;64505;51.458;7.556;2022-12-28T05:27:58;99491.25;;;6.22;87.92
75775;BME280;64505;51.458;7.556;2022-12-28T05:30:00;99488.97;;;6.19;88.38
75775;BME280;64505;51.458;7.556;2022-12-28T05:32:01;99498.09;;;6.23;89.10
75775;BME280;64505;51.458;7.556;2022-12-28T05:34:03;99501.31;;;6.18;89.49
75775;BME280;64505;51.458;7.556;2022-12-28T05:36:06;99497.09;;;6.24;89.44
75775;BME280;64505;51.458;7.556;2022-12-28T05:38:08;99503.72;;;6.20;88.83
75775;BME280;64505;51.458;7.556;2022-12-28T05:40:09;99504.16;;;6.23;89.11
75775;BME280;64505;51.458;7.556;2022-12-28T05:42:11;99499.47;;;6.19;90.14
75775;BME280;64505;51.458;7.556;2022-12-28T05:44:12;99491.03;;;6.23;89.05
75775;BME280;64505;51.458;7.556;2022-12-28T05:46:19;99504.97;;;6.24;89.35
75775;BME280;64505;51.458;7.556;2022-12-28T05:48:21;99491.66;;;6.25;89.70
75775;BME280;64505;51.458;7.556;2022-12-28T05:50:22;99482.75;;;6.26;89.15
75775;BME280;64505;51.458;7.556;2022-12-28T05:52:24;99488.41;;;6.30;89.78
75775;BME280;64505;51.458;7.556;2022-12-28T05:54:25;99484.78;;;6.31;89.72
75775;BME280;64505;51.458;7.556;2022-12-28T05:56:28;99492.66;;;6.31;89.79
75775;BME280;64505;51.458;7.556;2022-12-28T05:58:30;99489.84;;;6.32;89.22
75775;BME280;64505;51.458;7.556;2022-12-28T06:00:32;99489.44;;;6.35;89.03
75775;BME280;64505;51.458;7.556;2022-12-28T06:02:33;99489.63;;;6.34;89.13
75775;BME280;64505;51.458;7.556;2022-12-28T06:04:35;99486.41;;;6.38;88.57
75775;BME280;64505;51.458;7.556;2022-12-28T06:06:36;99482.38;;;6.42;89.12
75775;BME280;64505;51.458;7.556;2022-12-28T06:08:38;99480.56;;;6.43;88.40
75775;BME280;64505;51.458;7.556;2022-12-28T06:10:40;99488.22;;;6.44;89.33
75775;BME280;64505;51.458;7.556;2022-12-28T06:12:41;99481.75;;;6.40;89.32
75775;BME280;64505;51.458;7.556;2022-12-28T06:14:43;99485.19;;;6.41;90.16
75775;BME280;64505;51.458;7.556;2022-12-28T06:16:45;99478.09;;;6.41;89.30
75775;BME280;64505;51.458;7.556;2022-12-28T06:18:47;99483.38;;;6.41;89.54
75775;BME280;64505;51.458;7.556;2022-12-28T06:20:48;99470.03;;;6.43;90.09
75775;BME280;64505;51.458;7.556;2022-12-28T06:22:57;99473.47;;;6.43;90.08
75775;BME280;64505;51.458;7.556;2022-12-28T06:24:58;99471.84;;;6.42;89.92
75775;BME280;64505;51.458;7.556;2022-12-28T06:26:59;99461.13;;;6.44;89.66
75775;BME280;64505;51.458;7.556;2022-12-28T06:29:01;99468.00;;;6.45;90.67
75775;BME280;64505;51.458;7.556;2022-12-28T06:31:07;99470.44;;;6.47;90.42
75775;BME280;64505;51.458;7.556;2022-12-28T06:33:08;99472.84;;;6.48;90.45
75775;BME280;64505;51.458;7.556;2022-12-28T06:35:10;99476.28;;;6.49;90.89
75775;BME280;64505;51.458;7.556;2022-12-28T06:37:11;99470.44;;;6.47;90.32
75775;BME280;64505;51.458;7.556;2022-12-28T06:39:13;99478.09;;;6.48;90.55
75775;BME280;64505;51.458;7.556;2022-12-28T06:41:16;99473.66;;;6.49;91.38
75775;BME280;64505;51.458;7.556;2022-12-28T06:43:18;99473.25;;;6.52;90.64
75775;BME280;64505;51.458;7.556;2022-12-28T06:45:19;99479.53;;;6.51;90.76
75775;BME280;64505;51.458;7.556;2022-12-28T06:47:20;99471.66;;;6.51;90.73
75775;BME280;64505;51.458;7.556;2022-12-28T06:49:22;99473.47;;;6.50;90.78
75775;BME280;64505;51.458;7.556;2022-12-28T06:51:26;99472.66;;;6.50;91.21
75775;BME280;64505;51.458;7.556;2022-12-28T06:53:29;99473.25;;;6.45;91.24
75775;BME280;64505;51.458;7.556;2022-12-28T06:55:31;99477.91;;;6.50;91.18
75775;BME280;64505;51.458;7.556;2022-12-28T06:57:32;99479.53;;;6.51;91.52
75775;BME280;64505;51.458;7.556;2022-12-28T06:59:33;99476.09;;;6.50;92.02
75775;BME280;64505;51.458;7.556;2022-12-28T07:01:37;99478.50;;;6.52;91.91
75775;BME280;64505;51.458;7.556;2022-12-28T07:03:41;99479.31;;;6.52;91.22
75775;BME280;64505;51.458;7.556;2022-12-28T07:05:42;99479.31;;;6.52;91.23
75775;BME280;64505;51.458;7.556;2022-12-28T07:07:44;99480.13;;;6.53;92.05
75775;BME280;64505;51.458;7.556;2022-12-28T07:09:46;99470.44;;;6.53;91.72
75775;BME280;64505;51.458;7.556;2022-12-28T07:11:48;99477.50;;;6.53;91.91
75775;BME280;64505;51.458;7.556;2022-12-28T07:13:50;99470.63;;;6.52;91.91
75775;BME280;64505;51.458;7.556;2022-12-28T07:15:51;99468.00;;;6.52;92.46
75775;BME280;64505;51.458;7.556;2022-12-28T07:17:53;99472.25;;;6.53;92.45
75775;BME280;64505;51.458;7.556;2022-12-28T07:19:54;99470.25;;;6.55;91.99
75775;BME280;64505;51.458;7.556;2022-12-28T07:21:55;99469.63;;;6.53;91.86
75775;BME280;64505;51.458;7.556;2022-12-28T07:23:57;99472.06;;;6.54;92.52
75775;BME280;64505;51.458;7.556;2022-12-28T07:28:07;99472.06;;;6.54;91.96
75775;BME280;64505;51.458;7.556;2022-12-28T07:30:09;99467.63;;;6.55;92.80
75775;BME280;64505;51.458;7.556;2022-12-28T07:32:11;99454.09;;;6.58;92.09
75775;BME280;64505;51.458;7.556;2022-12-28T07:34:13;99466.41;;;6.57;92.12
75775;BME280;64505;51.458;7.556;2022-12-28T07:36:18;99462.16;;;6.56;92.02
75775;BME280;64505;51.458;7.556;2022-12-28T07:38:19;99458.13;;;6.54;92.97
75775;BME280;64505;51.458;7.556;2022-12-28T07:40:22;99458.72;;;6.56;93.28
75775;BME280;64505;51.458;7.556;2022-12-28T07:42:23;99457.72;;;6.57;93.16
75775;BME280;64505;51.458;7.556;2022-12-28T07:44:24;99457.72;;;6.57;92.50
75775;BME280;64505;51.458;7.556;2022-12-28T07:46:32;99458.53;;;6.57;92.19
75775;BME280;64505;51.458;7.556;2022-12-28T07:48:35;99460.94;;;6.59;93.22
75775;BME280;64505;51.458;7.556;2022-12-28T07:50:37;99458.94;;;6.54;92.57
75775;BME280;64505;51.458;7.556;2022-12-28T07:52:39;99455.09;;;6.57;93.59
75775;BME280;64505;51.458;7.556;2022-12-28T07:54:40;99463.38;;;6.60;93.10
75775;BME280;64505;51.458;7.556;2022-12-28T07:56:41;99450.03;;;6.62;93.21
75775;BME280;64505;51.458;7.556;2022-12-28T07:58:46;99453.06;;;6.59;92.96
75775;BME280;64505;51.458;7.556;2022-12-28T08:00:46;99453.66;;;6.61;92.90
75775;BME280;64505;51.458;7.556;2022-12-28T08:02:47;99450.81;;;6.62;92.90
75775;BME280;64505;51.458;7.556;2022-12-28T08:04:49;99451.22;;;6.59;93.66
75775;BME280;64505;51.458;7.556;2022-12-28T08:06:52;99443.34;;;6.59;92.99
75775;BME280;64505;51.458;7.556;2022-12-28T08:08:58;99443.97;;;6.61;93.40
75775;BME280;64505;51.458;7.556;2022-12-28T08:11:04;99445.78;;;6.67;92.98
75775;BME280;64505;51.458;7.556;2022-12-28T08:13:06;99443.16;;;6.67;92.86
75775;BME280;64505;51.458;7.556;2022-12-28T08:15:08;99448.22;;;6.69;92.63
75775;BME280;64505;51.458;7.556;2022-12-28T08:17:09;99454.47;;;6.68;93.16
75775;BME280;64505;51.458;7.556;2022-12-28T08:19:17;99436.66;;;6.70;92.51
75775;BME280;64505;51.458;7.556;2022-12-28T08:21:33;99449.00;;;6.69;92.51
75775;BME280;64505;51.458;7.556;2022-12-28T08:23:34;99443.94;;;6.74;93.51
75775;BME280;64505;51.458;7.556;2022-12-28T08:25:36;99459.53;;;6.76;92.91
75775;BME280;64505;51.458;7.556;2022-12-28T08:27:37;99453.84;;;6.79;92.49
75775;BME280;64505;51.458;7.556;2022-12-28T08:29:39;99449.59;;;6.78;93.53
75775;BME280;64505;51.458;7.556;2022-12-28T08:31:42;99457.06;;;6.81;92.48
75775;BME280;64505;51.458;7.556;2022-12-28T08:33:45;99445.56;;;6.82;93.22
75775;BME280;64505;51.458;7.556;2022-12-28T08:35:47;99440.31;;;6.82;93.01
75775;BME280;64505;51.458;7.556;2022-12-28T08:37:48;99451.41;;;6.84;92.35
75775;BME280;64505;51.458;7.556;2022-12-28T08:39:49;99442.09;;;6.88;92.33
75775;BME280;64505;51.458;7.556;2022-12-28T08:41:51;99455.06;;;6.89;92.81
75775;BME280;64505;51.458;7.556;2022-12-28T08:43:53;99449.56;;;6.91;93.54
75775;BME280;64505;51.458;7.556;2022-12-28T08:48:06;99443.72;;;6.96;92.47
75775;BME280;64505;51.458;7.556;2022-12-28T08:50:08;99444.72;;;6.94;93.43
75775;BME280;64505;51.458;7.556;2022-12-28T08:52:12;99446.16;;;6.97;92.37
75775;BME280;64505;51.458;7.556;2022-12-28T08:54:14;99442.69;;;7.03;92.66
75775;BME280;64505;51.458;7.556;2022-12-28T08:56:21;99444.91;;;7.06;92.43
75775;BME280;64505;51.458;7.556;2022-12-28T08:58:23;99444.09;;;7.06;92.61
75775;BME280;64505;51.458;7.556;2022-12-28T09:00:24;99439.63;;;7.06;92.31
75775;BME280;64505;51.458;7.556;2022-12-28T09:02:25;99441.25;;;7.07;93.16
75775;BME280;64505;51.458;7.556;2022-12-28T09:04:27;99445.09;;;7.11;92.42
75775;BME280;64505;51.458;7.556;2022-12-28T09:06:31;99448.53;;;7.12;92.81
75775;BME280;64505;51.458;7.556;2022-12-28T09:08:33;99459.47;;;7.09;92.78
75775;BME280;64505;51.458;7.556;2022-12-28T09:10:34;99448.34;;;7.07;92.69
75775;BME280;64505;51.458;7.556;2022-12-28T09:12:36;99460.47;;;7.08;92.53
75775;BME280;64505;51.458;7.556;2022-12-28T09:14:37;99455.38;;;7.13;93.09
75775;BME280;64505;51.458;7.556;2022-12-28T09:16:39;99455.78;;;7.16;92.18
75775;BME280;64505;51.458;7.556;2022-12-28T09:18:42;99459.84;;;7.19;92.84
75775;BME280;64505;51.458;7.556;2022-12-28T09:20:44;99471.38;;;7.18;92.68
75775;BME280;64505;51.458;7.556;2022-12-28T09:22:48;99456.59;;;7.23;92.22
75775;BME280;64505;51.458;7.556;2022-12-28T09:24:49;99461.88;;;7.23;92.31
75775;BME280;64505;51.458;7.556;2022-12-28T09:26:51;99454.97;;;7.22;92.88
75775;BME280;64505;51.458;7.556;2022-12-28T09:28:56;99451.50;;;7.28;92.51
75775;BME280;64505;51.458;7.556;2022-12-28T09:31:01;99455.75;;;7.29;92.26
75775;BME280;64505;51.458;7.556;2022-12-28T09:33:02;99466.44;;;7.34;92.14
75775;BME280;64505;51.458;7.556;2022-12-28T09:35:22;99454.09;;;7.35;92.14
75775;BME280;64505;51.458;7.556;2022-12-28T09:37:24;99447.84;;;7.36;91.66
75775;BME280;64505;51.458;7.556;2022-12-28T09:39:25;99463.22;;;7.39;91.87
75775;BME280;64505;51.458;7.556;2022-12-28T09:43:31;99458.34;;;7.42;91.96
75775;BME280;64505;51.458;7.556;2022-12-28T09:45:33;99462.59;;;7.43;91.80
75775;BME280;64505;51.458;7.556;2022-12-28T09:47:41;99458.69;;;7.53;91.08
75775;BME280;64505;51.458;7.556;2022-12-28T09:54:24;99457.47;;;7.62;90.90
75775;BME280;64505;51.458;7.556;2022-12-28T09:56:34;99460.66;;;7.64;90.17
75775;BME280;64505;51.458;7.556;2022-12-28T09:58:38;99457.66;;;7.67;90.66
75775;BME280;64505;51.458;7.556;2022-12-28T10:00:50;99455.00;;;7.67;89.70
75775;BME280;64505;51.458;7.556;2022-12-28T10:03:06;99453.16;;;7.67;90.26
75775;BME280;64505;51.458;7.556;2022-12-28T10:05:11;99449.31;;;7.70;89.96
75775;BME280;64505;51.458;7.556;2022-12-28T10:07:13;99448.09;;;7.72;90.42
75775;BME280;64505;51.458;7.556;2022-12-28T10:09:40;99438.75;;;7.76;90.34
75775;BME280;64505;51.458;7.556;2022-12-28T10:11:43;99441.97;;;7.78;89.80
75775;BME280;64505;51.458;7.556;2022-12-28T10:13:44;99443.59;;;7.79;90.31
75775;BME280;64505;51.458;7.556;2022-12-28T10:15:56;99430.25;;;7.81;90.20
75775;BME280;64505;51.458;7.556;2022-12-28T10:17:58;99433.41;;;7.89;89.20
75775;BME280;64505;51.458;7.556;2022-12-28T10:19:59;99440.09;;;7.92;89.27
75775;BME280;64505;51.458;7.556;2022-12-28T10:22:12;99432.00;;;7.87;89.51
75775;BME280;64505;51.458;7.556;2022-12-28T10:24:15;99435.47;;;7.87;89.17
75775;BME280;64505;51.458;7.556;2022-12-28T10:26:34;99422.69;;;7.91;89.32
75775;BME280;64505;51.458;7.556;2022-12-28T10:29:21;99430.34;;;7.92;89.30
75775;BME280;64505;51.458;7.556;2022-12-28T10:31:37;99422.25;;;7.94;89.48
75775;BME280;64505;51.458;7.556;2022-12-28T10:33:41;99423.63;;;7.97;89.30
75775;BME280;64505;51.458;7.556;2022-12-28T10:35:53;99423.44;;;7.98;89.25
75775;BME280;64505;51.458;7.556;2022-12-28T10:38:01;99421.38;;;8.00;89.53
75775;BME280;64505;51.458;7.556;2022-12-28T10:40:17;99419.94;;;8.04;88.85
75775;BME280;64505;51.458;7.556;2022-12-28T10:42:29;99415.13;;;8.01;88.98
75775;BME280;64505;51.458;7.556;2022-12-28T10:44:33;99404.00;;;7.99;88.87
75775;BME280;64505;51.458;7.556;2022-12-28T10:46:50;99410.66;;;8.02;88.70
75775;BME280;64505;51.458;7.556;2022-12-28T10:48:55;99406.78;;;8.04;88.95
75775;BME280;64505;51.458;7.556;2022-12-28T10:51:00;99398.50;;;8.01;88.57
75775;BME280;64505;51.458;7.556;2022-12-28T10:55:31;99405.34;;;8.08;88.02
75775;BME280;64505;51.458;7.556;2022-12-28T10:57:33;99392.78;;;8.10;88.26
75775;BME280;64505;51.458;7.556;2022-12-28T10:59:38;99391.69;;;8.18;88.20
75775;BME280;64505;51.458;7.556;2022-12-28T11:01:41;99387.03;;;8.20;88.07
75775;BME280;64505;51.458;7.556;2022-12-28T11:05:44;99366.34;;;8.23;87.81
75775;BME280;64505;51.458;7.556;2022-12-28T11:07:47;99374.22;;;8.23;88.10
75775;BME280;64505;51.458;7.556;2022-12-28T11:09:48;99360.81;;;8.31;88.39
75775;BME280;64505;51.458;7.556;2022-12-28T11:11:54;99361.63;;;8.25;88.09
75775;BME280;64505;51.458;7.556;2022-12-28T11:14:01;99360.00;;;8.31;87.54
75775;BME280;64505;51.458;7.556;2022-12-28T11:16:04;99349.84;;;8.34;87.70
75775;BME280;64505;51.458;7.556;2022-12-28T11:18:16;99355.31;;;8.33;88.03
75775;BME280;64505;51.458;7.556;2022-12-28T11:20:24;99348.78;;;8.42;87.75
75775;BME280;64505;51.458;7.556;2022-12-28T11:22:27;99350.34;;;8.43;86.66
75775;BME280;64505;51.458;7.556;2022-12-28T11:24:30;99345.63;;;8.52;86.59
75775;BME280;64505;51.458;7.556;2022-12-28T11:26:42;99344.69;;;8.64;86.70
75775;BME280;64505;51.458;7.556;2022-12-28T11:28:47;99338.69;;;8.57;86.32
75775;BME280;64505;51.458;7.556;2022-12-28T11:30:50;99348.06;;;8.53;85.93
75775;BME280;64505;51.458;7.556;2022-12-28T11:32:57;99339.25;;;8.59;86.49
75775;BME280;64505;51.458;7.556;2022-12-28T11:35:00;99334.53;;;8.68;85.97
75775;BME280;64505;51.458;7.556;2022-12-28T11:37:01;99326.09;;;8.59;86.53
75775;BME280;64505;51.458;7.556;2022-12-28T11:39:31;99327.47;;;8.62;86.36
75775;BME280;64505;51.458;7.556;2022-12-28T11:43:41;99323.91;;;8.56;85.77
75775;BME280;64505;51.458;7.556;2022-12-28T11:45:52;99336.44;;;8.61;85.97
75775;BME280;64505;51.458;7.556;2022-12-28T11:52:44;99323.97;;;8.68;85.37
75775;BME280;64505;51.458;7.556;2022-12-28T11:55:00;99325.13;;;8.72;84.82
75775;BME280;64505;51.458;7.556;2022-12-28T11:57:03;99323.63;;;8.82;85.11
75775;BME280;64505;51.458;7.556;2022-12-28T11:59:20;99312.03;;;8.83;85.08
75775;BME280;64505;51.458;7.556;2022-12-28T12:04:05;99324.03;;;8.79;85.09